Time,TemperatureF,DewpointF,PressureIn,WindDirection,WindDirectionDegrees,WindSpeedMPH,WindSpeedGustMPH,Humidity,HourlyPrecipIn,Conditions,Clouds,dailyrainin,SoftwareType,DateUTC
2013-01-31 00:00:00,53.1,49.9,29.06,SW,228,3.5,3.5,89,0.01,RA,,0.00,WeatherDisplay:10.37,2013-01-31 05:00:00,
2013-01-31 00:01:00,53.0,49.8,29.05,SE,139,2.3,2.3,89,0.01,RA,,0.00,WeatherDisplay:10.37,2013-01-31 05:01:00,
2013-01-31 00:02:00,53.0,49.8,29.05,SSE,164,2.3,2.3,89,0.01,RA,,0.00,WeatherDisplay:10.37,2013-01-31 05:02:00,
2013-01-31 00:07:00,52.8,49.3,29.05,SSE,153,1.1,1.1,88,0.01,RA,,0.00,WeatherDisplay:10.37,2013-01-31 05:07:00,
2013-01-31 00:12:00,52.7,49.2,29.05,SE,145,2.3,2.3,88,0.01,,,0.00,WeatherDisplay:10.37,2013-01-31 05:12:00,
2013-01-31 00:17:00,52.6,48.8,29.04,SSE,160,3.5,3.5,87,0.02,RA,,0.01,WeatherDisplay:10.37,2013-01-31 05:17:00,
2013-01-31 00:22:00,52.5,48.7,29.03,SSW,194,2.3,2.3,87,0.02,RA,,0.01,WeatherDisplay:10.37,2013-01-31 05:22:00,
2013-01-31 00:27:00,52.5,48.7,29.03,ESE,113,2.3,2.3,87,0.02,,,0.01,WeatherDisplay:10.37,2013-01-31 05:27:00,
2013-01-31 00:32:00,52.6,48.5,29.03,SW,215,2.3,2.3,86,0.02,,,0.01,WeatherDisplay:10.37,2013-01-31 05:32:00,
2013-01-31 00:37:00,52.8,48.7,29.03,SSE,160,3.5,3.5,86,0.02,,,0.01,WeatherDisplay:10.37,2013-01-31 05:37:00,
2013-01-31 00:42:00,53.0,48.9,29.02,WSW,248,5.8,5.8,86,0.02,,,0.01,WeatherDisplay:10.37,2013-01-31 05:42:00,
2013-01-31 00:47:00,53.2,49.4,29.01,South,176,3.5,3.5,87,0.02,,,0.01,WeatherDisplay:10.37,2013-01-31 05:47:00,
2013-01-31 00:52:00,53.4,49.9,29.01,South,191,6.9,6.9,88,0.01,,,0.01,WeatherDisplay:10.37,2013-01-31 05:52:00,
2013-01-31 00:57:00,53.5,50.3,29.01,SSE,163,5.0,5.0,89,0.01,,,0.01,WeatherDisplay:10.37,2013-01-31 05:57:00,
2013-01-31 01:02:00,53.7,50.5,29.01,WSW,239,9.2,9.2,89,0.01,,,0.01,WeatherDisplay:10.37,2013-01-31 06:02:00,
2013-01-31 01:07:00,54.1,51.2,29.01,SSW,203,5.0,5.0,90,0.01,,,0.01,WeatherDisplay:10.37,2013-01-31 06:07:00,
2013-01-31 01:12:00,54.4,51.5,29.01,South,191,6.0,6.0,90,0.01,,,0.01,WeatherDisplay:10.37,2013-01-31 06:12:00,
2013-01-31 01:18:00,54.5,51.6,29.01,SW,226,5.8,5.8,90,0.01,RA,,0.02,WeatherDisplay:10.37,2013-01-31 06:18:00,
2013-01-31 01:23:00,54.5,51.6,29.01,ESE,117,3.5,3.5,90,0.02,RA,,0.03,WeatherDisplay:10.37,2013-01-31 06:23:00,
2013-01-31 01:28:00,54.3,51.4,29.01,SW,235,4.6,4.6,90,0.04,RA,,0.06,WeatherDisplay:10.37,2013-01-31 06:28:00,
2013-01-31 01:33:00,54.1,51.2,29.02,West,276,3.5,3.5,90,0.07,RA,,0.08,WeatherDisplay:10.37,2013-01-31 06:33:00,
2013-01-31 01:38:00,53.8,50.6,29.03,SE,129,0.0,0.0,89,0.08,RA,,0.09,WeatherDisplay:10.37,2013-01-31 06:38:00,
2013-01-31 01:43:00,53.7,50.5,29.03,WSW,255,1.1,0.0,89,0.12,RA,,0.15,WeatherDisplay:10.37,2013-01-31 06:43:00,
2013-01-31 01:48:00,53.6,50.1,29.02,SSE,158,1.1,1.1,88,0.17,RA,,0.18,WeatherDisplay:10.37,2013-01-31 06:48:00,
2013-01-31 01:53:00,53.4,49.6,29.02,SE,140,0.0,0.0,87,0.20,RA,,0.21,WeatherDisplay:10.37,2013-01-31 06:53:00,
2013-01-31 01:58:00,53.3,49.5,29.02,SSE,155,0.0,0.1,87,0.21,RA,,0.22,WeatherDisplay:10.37,2013-01-31 06:58:00,
2013-01-31 02:03:00,53.2,49.4,29.04,SW,221,6.9,6.9,87,0.23,RA,,0.24,WeatherDisplay:10.37,2013-01-31 07:03:00,
2013-01-31 02:08:00,50.5,46.8,29.04,West,279,19.6,19.6,87,0.23,RA,,0.25,WeatherDisplay:10.37,2013-01-31 07:08:00,
2013-01-31 02:13:00,48.6,45.5,29.05,WNW,288,11.5,11.5,89,0.24,RA,,0.25,WeatherDisplay:10.37,2013-01-31 07:13:00,
2013-01-31 02:18:00,47.7,44.9,29.06,West,276,10.4,10.4,90,0.23,,,0.25,WeatherDisplay:10.37,2013-01-31 07:18:00,
2013-01-31 02:23:00,47.0,43.9,29.04,WNW,284,16.1,16.1,89,0.23,RA,,0.26,WeatherDisplay:10.37,2013-01-31 07:23:00,
2013-01-31 02:28:00,46.4,43.6,29.04,West,276,3.5,3.5,90,0.21,RA,,0.27,WeatherDisplay:10.37,2013-01-31 07:28:00,
2013-01-31 02:33:00,45.9,43.1,29.07,WSW,247,16.0,16.0,90,0.20,RA,,0.28,WeatherDisplay:10.37,2013-01-31 07:33:00,
2013-01-31 02:38:00,45.3,42.2,29.06,West,274,8.1,8.1,89,0.20,RA,,0.29,WeatherDisplay:10.37,2013-01-31 07:38:00,
2013-01-31 02:43:00,44.7,41.9,29.07,North,353,11.5,11.5,90,0.15,RA,,0.30,WeatherDisplay:10.37,2013-01-31 07:43:00,
2013-01-31 02:48:00,44.2,41.5,29.06,West,274,8.1,8.1,90,0.13,RA,,0.31,WeatherDisplay:10.37,2013-01-31 07:48:00,
2013-01-31 02:53:00,43.7,41.0,29.07,SW,221,5.0,5.0,90,0.10,RA,,0.31,WeatherDisplay:10.37,2013-01-31 07:53:00,
2013-01-31 02:58:00,43.3,40.6,29.07,West,267,8.1,8.1,90,0.10,RA,,0.32,WeatherDisplay:10.37,2013-01-31 07:58:00,
2013-01-31 03:03:00,43.0,40.3,29.07,SSW,205,5.8,5.8,90,0.08,RA,,0.32,WeatherDisplay:10.37,2013-01-31 08:03:00,
2013-01-31 03:08:00,42.6,39.9,29.05,WNW,295,8.1,8.1,90,0.07,,,0.32,WeatherDisplay:10.37,2013-01-31 08:08:00,
2013-01-31 03:13:00,42.3,39.3,29.08,SW,233,12.7,12.7,89,0.07,,,0.32,WeatherDisplay:10.37,2013-01-31 08:13:00,
2013-01-31 03:18:00,42.1,38.8,29.06,SSW,212,9.2,9.2,88,0.07,,,0.32,WeatherDisplay:10.37,2013-01-31 08:18:00,
2013-01-31 03:23:00,41.9,38.9,29.08,WSW,249,5.0,5.0,89,0.06,,,0.32,WeatherDisplay:10.37,2013-01-31 08:23:00,
2013-01-31 03:28:00,41.7,38.7,29.07,WSW,249,1.1,1.1,89,0.05,,,0.32,WeatherDisplay:10.37,2013-01-31 08:28:00,
2013-01-31 03:33:00,41.5,38.2,29.09,SW,236,11.5,11.5,88,0.04,,,0.32,WeatherDisplay:10.37,2013-01-31 08:33:00,
2013-01-31 03:38:00,41.3,38.3,29.07,SW,232,5.0,5.0,89,0.03,,,0.32,WeatherDisplay:10.37,2013-01-31 08:38:00,
2013-01-31 03:43:00,41.1,37.5,29.07,ESE,111,6.9,6.9,87,0.02,,,0.32,WeatherDisplay:10.37,2013-01-31 08:43:00,
2013-01-31 03:48:00,40.6,36.4,29.07,West,279,16.1,16.1,85,0.01,,,0.32,WeatherDisplay:10.37,2013-01-31 08:48:00,
2013-01-31 03:53:00,40.4,36.2,29.08,West,266,6.9,6.9,85,0.01,,,0.32,WeatherDisplay:10.37,2013-01-31 08:53:00,
2013-01-31 03:58:00,40.2,36.1,29.07,WSW,257,11.5,11.5,85,0.00,,,0.32,WeatherDisplay:10.37,2013-01-31 08:58:00,
2013-01-31 04:03:00,39.9,36.3,29.06,NNW,345,12.0,12.0,87,0.00,,,0.32,WeatherDisplay:10.37,2013-01-31 09:03:00,
2013-01-31 04:08:00,39.7,35.9,29.09,West,262,3.5,3.5,86,0.00,,,0.32,WeatherDisplay:10.37,2013-01-31 09:08:00,
2013-01-31 04:13:00,39.6,36.0,29.08,WSW,257,5.8,5.8,87,0.00,,,0.32,WeatherDisplay:10.37,2013-01-31 09:13:00,
2013-01-31 04:18:00,39.5,36.0,29.08,West,262,5.8,5.8,87,0.00,,,0.32,WeatherDisplay:10.37,2013-01-31 09:18:00,
2013-01-31 04:23:00,39.6,35.5,29.08,NW,317,10.4,10.4,85,0.00,,,0.32,WeatherDisplay:10.37,2013-01-31 09:23:00,
2013-01-31 04:28:00,39.7,35.0,29.08,SW,233,6.9,6.9,83,0.00,,,0.32,WeatherDisplay:10.37,2013-01-31 09:28:00,
2013-01-31 04:33:00,39.5,34.8,29.07,WNW,283,11.5,11.5,83,0.00,,,0.32,WeatherDisplay:10.37,2013-01-31 09:33:00,
2013-01-31 04:38:00,39.5,34.8,29.08,WNW,284,9.0,9.0,83,0.00,,,0.32,WeatherDisplay:10.37,2013-01-31 09:38:00,
2013-01-31 04:43:00,39.4,34.4,29.09,WSW,257,6.0,6.0,82,0.00,,,0.32,WeatherDisplay:10.37,2013-01-31 09:43:00,
2013-01-31 04:48:00,39.3,34.3,29.10,West,270,9.2,9.2,82,0.00,,,0.32,WeatherDisplay:10.37,2013-01-31 09:48:00,
2013-01-31 04:53:00,39.3,34.3,29.09,WSW,252,6.9,6.9,82,0.00,,,0.32,WeatherDisplay:10.37,2013-01-31 09:53:00,
2013-01-31 04:58:00,39.1,34.4,29.09,NW,313,25.0,25.0,83,0.00,,,0.32,WeatherDisplay:10.37,2013-01-31 09:58:00,
2013-01-31 05:03:00,39.1,33.8,29.09,WSW,252,11.5,11.5,81,0.00,,,0.32,WeatherDisplay:10.37,2013-01-31 10:03:00,
2013-01-31 05:08:00,39.1,33.5,29.09,WSW,246,17.3,17.3,80,0.00,,,0.32,WeatherDisplay:10.37,2013-01-31 10:08:00,
2013-01-31 05:13:00,38.9,33.6,29.09,WSW,245,13.8,13.8,81,0.00,,,0.32,WeatherDisplay:10.37,2013-01-31 10:13:00,
2013-01-31 05:18:00,38.8,33.5,29.10,SW,225,8.1,8.1,81,0.00,,,0.32,WeatherDisplay:10.37,2013-01-31 10:18:00,
2013-01-31 05:23:00,38.7,33.4,29.11,WNW,287,4.6,4.8,81,0.00,,,0.32,WeatherDisplay:10.37,2013-01-31 10:23:00,
2013-01-31 05:28:00,38.5,33.2,29.10,NW,326,9.2,9.2,81,0.00,,,0.32,WeatherDisplay:10.37,2013-01-31 10:28:00,
2013-01-31 05:33:00,38.3,33.0,29.12,West,264,18.4,18.4,81,0.00,,,0.32,WeatherDisplay:10.37,2013-01-31 10:33:00,
2013-01-31 05:38:00,38.0,32.4,29.12,WSW,256,18.4,18.4,80,0.00,,,0.32,WeatherDisplay:10.37,2013-01-31 10:38:00,
2013-01-31 05:43:00,37.8,32.2,29.12,WSW,255,9.2,9.2,80,0.00,,,0.32,WeatherDisplay:10.37,2013-01-31 10:43:00,
2013-01-31 05:48:00,37.6,32.0,29.13,SW,228,13.8,13.8,80,0.00,,,0.32,WeatherDisplay:10.37,2013-01-31 10:48:00,
2013-01-31 05:53:00,37.5,31.6,29.13,WSW,238,13.8,13.8,79,0.00,,,0.32,WeatherDisplay:10.37,2013-01-31 10:53:00,
2013-01-31 05:58:00,37.3,31.7,29.13,WNW,297,8.1,8.1,80,0.00,,,0.32,WeatherDisplay:10.37,2013-01-31 10:58:00,
2013-01-31 06:03:00,37.1,31.2,29.14,West,260,11.5,11.5,79,0.00,,,0.32,WeatherDisplay:10.37,2013-01-31 11:03:00,
2013-01-31 06:08:00,36.9,30.7,29.14,WSW,251,11.5,11.5,78,0.00,,,0.32,WeatherDisplay:10.37,2013-01-31 11:08:00,
2013-01-31 06:13:00,36.7,30.5,29.15,NNW,341,11.5,11.5,78,0.00,,,0.32,WeatherDisplay:10.37,2013-01-31 11:13:00,
2013-01-31 06:18:00,36.5,30.3,29.16,West,278,16.1,16.1,78,0.00,,,0.32,WeatherDisplay:10.37,2013-01-31 11:18:00,
2013-01-31 06:23:00,36.3,30.1,29.16,West,278,7.0,7.0,78,0.00,,,0.32,WeatherDisplay:10.37,2013-01-31 11:23:00,
2013-01-31 06:28:00,36.3,29.8,29.16,East,83,10.4,10.4,77,0.00,,,0.32,WeatherDisplay:10.37,2013-01-31 11:28:00,
2013-01-31 06:33:00,36.0,29.8,29.17,WSW,238,13.8,13.8,78,0.00,,,0.32,WeatherDisplay:10.37,2013-01-31 11:33:00,
2013-01-31 06:38:00,35.7,29.5,29.18,SW,233,11.5,11.5,78,0.00,,,0.32,WeatherDisplay:10.37,2013-01-31 11:38:00,
2013-01-31 06:43:00,35.2,30.0,29.19,West,260,8.1,8.1,81,0.00,,,0.32,WeatherDisplay:10.37,2013-01-31 11:43:00,
2013-01-31 06:48:00,34.5,30.7,29.19,WNW,289,11.5,11.5,86,0.00,,,0.32,WeatherDisplay:10.37,2013-01-31 11:48:00,
2013-01-31 06:53:00,33.9,30.4,29.19,SW,225,4.6,4.6,87,0.00,,,0.32,WeatherDisplay:10.37,2013-01-31 11:53:00,
2013-01-31 06:58:00,33.7,30.2,29.19,SW,219,8.1,8.1,87,0.00,,,0.32,WeatherDisplay:10.37,2013-01-31 11:58:00,
2013-01-31 07:03:00,33.7,29.7,29.20,SSW,193,10.4,10.4,85,0.00,,,0.32,WeatherDisplay:10.37,2013-01-31 12:03:00,
2013-01-31 07:08:00,33.9,29.6,29.20,SW,231,10.0,10.0,84,0.00,,,0.32,WeatherDisplay:10.37,2013-01-31 12:08:00,
2013-01-31 07:13:00,34.0,28.5,29.21,West,264,17.0,17.0,80,0.00,,,0.32,WeatherDisplay:10.37,2013-01-31 12:13:00,
2013-01-31 07:18:00,33.9,28.1,29.22,NNE,18,10.4,10.4,79,0.00,,,0.32,WeatherDisplay:10.37,2013-01-31 12:18:00,
2013-01-31 07:23:00,33.8,28.3,29.23,SW,224,6.9,6.9,80,0.00,,,0.32,WeatherDisplay:10.37,2013-01-31 12:23:00,
2013-01-31 07:28:00,33.7,28.2,29.24,WNW,283,19.6,19.6,80,0.00,,,0.32,WeatherDisplay:10.37,2013-01-31 12:28:00,
2013-01-31 07:33:00,33.5,27.1,29.24,NW,319,11.5,11.5,77,0.00,,,0.32,WeatherDisplay:10.37,2013-01-31 12:33:00,
2013-01-31 07:38:00,33.3,26.2,29.25,WNW,299,19.0,19.0,75,0.00,,,0.32,WeatherDisplay:10.37,2013-01-31 12:38:00,
2013-01-31 07:43:00,33.3,25.9,29.25,WSW,238,7.0,7.0,74,0.00,,,0.32,WeatherDisplay:10.37,2013-01-31 12:43:00,
2013-01-31 07:49:00,33.3,25.2,29.26,SW,214,10.4,10.4,72,0.00,,,0.32,WeatherDisplay:10.37,2013-01-31 12:49:00,
2013-01-31 07:54:00,33.3,24.9,29.27,NW,305,10.4,10.4,71,0.00,,,0.32,WeatherDisplay:10.37,2013-01-31 12:54:00,
2013-01-31 07:59:00,33.1,24.0,29.27,ENE,67,6.9,6.9,69,0.00,,,0.32,WeatherDisplay:10.37,2013-01-31 12:59:00,
2013-01-31 08:04:00,32.9,24.2,29.27,WSW,246,13.0,13.0,70,0.00,,,0.32,WeatherDisplay:10.37,2013-01-31 13:04:00,
2013-01-31 08:09:00,32.7,23.6,29.28,WSW,258,10.4,10.4,69,0.00,,,0.32,WeatherDisplay:10.37,2013-01-31 13:09:00,
2013-01-31 08:14:00,32.5,23.1,29.29,WSW,238,17.3,17.3,68,0.00,,,0.32,WeatherDisplay:10.37,2013-01-31 13:14:00,
2013-01-31 08:19:00,32.4,22.7,29.29,West,273,19.6,19.6,67,0.00,,,0.32,WeatherDisplay:10.37,2013-01-31 13:19:00,
2013-01-31 08:24:00,32.3,22.6,29.30,ENE,58,11.5,11.5,67,0.00,,,0.32,WeatherDisplay:10.37,2013-01-31 13:24:00,
2013-01-31 08:29:00,32.3,22.2,29.30,SE,127,13.8,13.8,66,0.00,,,0.32,WeatherDisplay:10.37,2013-01-31 13:29:00,
2013-01-31 08:34:00,32.2,22.5,29.30,ESE,121,6.0,6.0,67,0.00,,,0.32,WeatherDisplay:10.37,2013-01-31 13:34:00,
2013-01-31 08:39:00,32.1,22.7,29.31,WSW,252,7.0,7.0,68,0.00,,,0.32,WeatherDisplay:10.37,2013-01-31 13:39:00,
2013-01-31 08:44:00,32.0,22.6,29.31,WNW,300,3.5,3.5,68,0.00,,,0.32,WeatherDisplay:10.37,2013-01-31 13:44:00,
2013-01-31 08:49:00,31.9,22.2,29.31,WSW,253,13.8,13.8,67,0.00,,,0.32,WeatherDisplay:10.37,2013-01-31 13:49:00,
2013-01-31 08:54:00,31.6,23.3,29.32,West,262,12.7,12.7,71,0.00,,,0.32,WeatherDisplay:10.37,2013-01-31 13:54:00,
2013-01-31 08:59:00,31.0,24.0,29.33,NW,307,11.0,11.0,75,0.00,,,0.32,WeatherDisplay:10.37,2013-01-31 13:59:00,
2013-01-31 09:04:00,30.4,25.0,29.33,West,280,9.2,9.2,80,0.00,,,0.32,WeatherDisplay:10.37,2013-01-31 14:04:00,
2013-01-31 09:09:00,29.8,25.8,29.33,SW,225,8.1,8.1,85,0.00,,,0.32,WeatherDisplay:10.37,2013-01-31 14:09:00,
2013-01-31 09:14:00,29.4,26.0,29.33,East,89,4.0,4.0,87,0.00,,,0.32,WeatherDisplay:10.37,2013-01-31 14:14:00,
2013-01-31 09:19:00,29.4,25.7,29.33,WNW,293,8.1,8.1,86,0.00,,,0.32,WeatherDisplay:10.37,2013-01-31 14:19:00,
2013-01-31 09:24:00,29.6,24.5,29.34,West,262,17.3,17.3,81,0.00,,,0.32,WeatherDisplay:10.37,2013-01-31 14:24:00,
2013-01-31 09:29:00,29.8,24.1,29.33,West,277,10.4,10.4,79,0.00,,,0.32,WeatherDisplay:10.37,2013-01-31 14:29:00,
2013-01-31 09:34:00,30.1,24.1,29.34,WSW,255,11.5,11.5,78,0.00,,,0.32,WeatherDisplay:10.37,2013-01-31 14:34:00,
2013-01-31 09:39:00,30.4,23.4,29.34,West,279,24.2,24.2,75,0.00,,,0.32,WeatherDisplay:10.37,2013-01-31 14:39:00,
2013-01-31 09:44:00,30.5,22.5,29.34,West,260,15.0,15.0,72,0.00,,,0.32,WeatherDisplay:10.37,2013-01-31 14:44:00,
2013-01-31 09:49:00,30.6,23.3,29.35,West,262,3.5,3.5,74,0.00,,,0.32,WeatherDisplay:10.37,2013-01-31 14:49:00,
2013-01-31 09:54:00,30.3,21.7,29.35,WSW,257,20.7,20.7,70,0.00,,,0.32,WeatherDisplay:10.37,2013-01-31 14:54:00,
2013-01-31 09:59:00,30.0,21.4,29.35,SW,222,17.3,17.3,70,0.00,,,0.32,WeatherDisplay:10.37,2013-01-31 14:59:00,
2013-01-31 10:04:00,29.9,22.0,29.36,WSW,248,17.3,17.3,72,0.00,,,0.32,WeatherDisplay:10.37,2013-01-31 15:04:00,
2013-01-31 10:09:00,29.7,22.4,29.36,WNW,297,16.0,16.0,74,0.00,,,0.32,WeatherDisplay:10.37,2013-01-31 15:09:00,
2013-01-31 10:14:00,29.8,22.5,29.36,NNW,338,6.9,6.9,74,0.00,,,0.32,WeatherDisplay:10.37,2013-01-31 15:14:00,
2013-01-31 10:19:00,29.7,22.7,29.36,ENE,59,6.9,6.9,75,0.00,,,0.32,WeatherDisplay:10.37,2013-01-31 15:19:00,
2013-01-31 10:24:00,30.0,23.4,29.36,ENE,72,5.8,5.8,76,0.00,,,0.32,WeatherDisplay:10.37,2013-01-31 15:24:00,
2013-01-31 10:29:00,30.2,23.9,29.37,South,180,6.9,6.9,77,0.00,,,0.32,WeatherDisplay:10.37,2013-01-31 15:29:00,
2013-01-31 10:34:00,29.9,24.5,29.38,West,259,5.8,5.8,80,0.00,,,0.32,WeatherDisplay:10.37,2013-01-31 15:34:00,
2013-01-31 10:39:00,29.8,23.8,29.38,WSW,252,11.5,11.5,78,0.00,,,0.32,WeatherDisplay:10.37,2013-01-31 15:39:00,
2013-01-31 10:44:00,29.7,23.4,29.38,West,277,10.4,10.4,77,0.00,,,0.32,WeatherDisplay:10.37,2013-01-31 15:44:00,
2013-01-31 10:49:00,29.7,23.1,29.38,WNW,282,12.7,12.7,76,0.00,,,0.32,WeatherDisplay:10.37,2013-01-31 15:49:00,
2013-01-31 10:54:00,30.2,23.5,29.38,SW,228,15.0,15.0,76,0.00,,,0.32,WeatherDisplay:10.37,2013-01-31 15:54:00,
2013-01-31 10:59:00,30.4,22.4,29.38,North,359,20.7,20.7,72,0.00,,,0.32,WeatherDisplay:10.37,2013-01-31 15:59:00,
2013-01-31 11:04:00,30.7,22.7,29.39,WSW,252,12.7,12.7,72,0.00,,,0.32,WeatherDisplay:10.37,2013-01-31 16:04:00,
2013-01-31 11:09:00,30.9,21.6,29.39,West,276,11.5,11.5,68,0.00,,,0.32,WeatherDisplay:10.37,2013-01-31 16:09:00,
2013-01-31 11:14:00,31.0,21.3,29.38,WSW,238,6.9,6.9,67,0.00,,,0.32,WeatherDisplay:10.37,2013-01-31 16:14:00,
2013-01-31 11:19:00,31.3,20.9,29.38,SE,145,5.8,5.8,65,0.00,,,0.32,WeatherDisplay:10.37,2013-01-31 16:19:00,
2013-01-31 11:24:00,31.3,19.0,29.39,WNW,297,10.4,10.4,60,0.00,,,0.32,WeatherDisplay:10.37,2013-01-31 16:24:00,
2013-01-31 11:29:00,31.4,19.5,29.39,WNW,288,9.2,9.2,61,0.00,,,0.32,WeatherDisplay:10.37,2013-01-31 16:29:00,
2013-01-31 11:34:00,31.5,19.6,29.38,West,270,7.0,7.0,61,0.00,,,0.32,WeatherDisplay:10.37,2013-01-31 16:34:00,
2013-01-31 11:40:00,31.4,19.5,29.40,West,279,8.1,8.1,61,0.00,,,0.32,WeatherDisplay:10.37,2013-01-31 16:40:00,
2013-01-31 11:45:00,31.3,19.4,29.38,West,274,16.1,16.1,61,0.00,,,0.32,WeatherDisplay:10.37,2013-01-31 16:45:00,
2013-01-31 11:50:00,30.9,19.8,29.39,WSW,253,11.5,11.5,63,0.00,,,0.32,WeatherDisplay:10.37,2013-01-31 16:50:00,
2013-01-31 11:55:00,31.0,21.0,29.40,WSW,252,17.3,17.3,66,0.00,,,0.32,WeatherDisplay:10.37,2013-01-31 16:55:00,
2013-01-31 12:00:00,31.1,20.3,29.39,SW,214,8.1,8.1,64,0.00,,,0.32,WeatherDisplay:10.37,2013-01-31 17:00:00,
2013-01-31 12:05:00,31.3,20.2,29.40,WNW,284,32.2,32.2,63,0.00,,,0.32,WeatherDisplay:10.37,2013-01-31 17:05:00,
2013-01-31 12:10:00,31.0,19.5,29.40,WNW,289,20.7,20.7,62,0.00,,,0.32,WeatherDisplay:10.37,2013-01-31 17:10:00,
2013-01-31 12:15:00,31.2,20.1,29.40,West,276,24.2,24.2,63,0.00,,,0.32,WeatherDisplay:10.37,2013-01-31 17:15:00,
2013-01-31 12:20:00,31.5,20.0,29.41,WSW,239,8.1,8.1,62,0.00,,,0.32,WeatherDisplay:10.37,2013-01-31 17:20:00,
2013-01-31 12:25:00,31.3,20.2,29.41,SSE,163,11.5,11.5,63,0.00,,,0.32,WeatherDisplay:10.37,2013-01-31 17:25:00,
2013-01-31 12:30:00,31.0,19.9,29.41,WSW,238,5.8,5.8,63,0.00,,,0.32,WeatherDisplay:10.37,2013-01-31 17:30:00,
2013-01-31 12:35:00,30.6,19.5,29.42,West,267,11.5,11.5,63,0.00,,,0.32,WeatherDisplay:10.37,2013-01-31 17:35:00,
2013-01-31 12:40:00,30.5,19.4,29.42,NNE,26,11.5,11.5,63,0.00,,,0.32,WeatherDisplay:10.37,2013-01-31 17:40:00,
2013-01-31 12:45:00,30.4,18.9,29.42,NW,304,7.0,7.0,62,0.00,,,0.32,WeatherDisplay:10.37,2013-01-31 17:45:00,
2013-01-31 12:50:00,30.5,18.6,29.42,West,276,11.5,11.5,61,0.00,,,0.32,WeatherDisplay:10.37,2013-01-31 17:50:00,
2013-01-31 12:55:00,30.5,18.3,29.43,NNW,344,13.0,13.0,60,0.00,,,0.32,WeatherDisplay:10.37,2013-01-31 17:55:00,
2013-01-31 13:00:00,30.6,18.0,29.43,South,187,10.4,10.4,59,0.00,,,0.32,WeatherDisplay:10.37,2013-01-31 18:00:00,
2013-01-31 13:05:00,30.5,17.5,29.43,SE,137,16.1,16.1,58,0.00,,,0.32,WeatherDisplay:10.37,2013-01-31 18:05:00,
2013-01-31 13:10:00,30.4,17.8,29.43,ENE,58,7.0,7.0,59,0.00,,,0.32,WeatherDisplay:10.37,2013-01-31 18:10:00,
2013-01-31 13:15:00,30.2,17.2,29.44,West,278,8.1,8.1,58,0.00,,,0.32,WeatherDisplay:10.37,2013-01-31 18:15:00,
2013-01-31 13:20:00,30.2,16.8,29.44,WNW,283,10.4,10.4,57,0.00,,,0.32,WeatherDisplay:10.37,2013-01-31 18:20:00,
2013-01-31 13:25:00,30.4,16.6,29.44,WNW,284,13.8,13.8,56,0.00,,,0.32,WeatherDisplay:10.37,2013-01-31 18:25:00,
2013-01-31 13:30:00,30.3,15.6,29.45,WSW,249,16.1,16.1,54,0.00,,,0.32,WeatherDisplay:10.37,2013-01-31 18:30:00,
2013-01-31 13:36:00,30.4,15.7,29.45,WNW,297,16.1,16.1,54,0.00,,,0.32,WeatherDisplay:10.37,2013-01-31 18:36:00,
2013-01-31 13:41:00,30.3,15.2,29.45,NW,315,13.8,13.8,53,0.00,,,0.32,WeatherDisplay:10.37,2013-01-31 18:41:00,
2013-01-31 13:46:00,30.2,15.1,29.45,WSW,241,15.0,15.0,53,0.00,,,0.32,WeatherDisplay:10.37,2013-01-31 18:46:00,
2013-01-31 13:51:00,30.2,16.0,29.46,NNW,333,11.5,11.5,55,0.00,,,0.32,WeatherDisplay:10.37,2013-01-31 18:51:00,
2013-01-31 13:56:00,30.2,16.0,29.46,SW,236,6.9,6.9,55,0.00,,,0.32,WeatherDisplay:10.37,2013-01-31 18:56:00,
2013-01-31 14:01:00,30.2,15.5,29.46,NE,44,13.8,13.8,54,0.00,,,0.32,WeatherDisplay:10.37,2013-01-31 19:01:00,
2013-01-31 14:06:00,30.0,15.3,29.47,WSW,250,12.7,12.7,54,0.00,,,0.32,WeatherDisplay:10.37,2013-01-31 19:06:00,
2013-01-31 14:11:00,30.0,15.8,29.47,West,274,9.2,9.2,55,0.00,,,0.32,WeatherDisplay:10.37,2013-01-31 19:11:00,
2013-01-31 14:16:00,30.1,15.9,29.47,WNW,294,8.1,8.1,55,0.00,,,0.32,WeatherDisplay:10.37,2013-01-31 19:16:00,
2013-01-31 14:21:00,30.1,15.9,29.48,ESE,122,15.0,15.0,55,0.00,,,0.32,WeatherDisplay:10.37,2013-01-31 19:21:00,
2013-01-31 14:26:00,29.6,16.6,29.48,WSW,251,18.4,18.4,58,0.00,,,0.32,WeatherDisplay:10.37,2013-01-31 19:26:00,
2013-01-31 14:31:00,29.2,18.2,29.49,NNE,13,11.5,11.5,63,0.00,,,0.32,WeatherDisplay:10.37,2013-01-31 19:31:00,
2013-01-31 14:36:00,28.6,18.7,29.49,West,270,13.8,13.8,66,0.00,,,0.32,WeatherDisplay:10.37,2013-01-31 19:36:00,
2013-01-31 14:41:00,28.4,18.1,29.49,SW,217,12.7,12.7,65,0.00,,,0.32,WeatherDisplay:10.37,2013-01-31 19:41:00,
2013-01-31 14:46:00,28.5,18.2,29.49,West,263,11.5,11.5,65,0.00,,,0.32,WeatherDisplay:10.37,2013-01-31 19:46:00,
2013-01-31 14:51:00,28.5,18.6,29.49,NNE,25,3.5,3.5,66,0.00,,,0.32,WeatherDisplay:10.37,2013-01-31 19:51:00,
2013-01-31 14:56:00,28.7,18.1,29.49,ENE,75,6.9,6.9,64,0.00,,,0.32,WeatherDisplay:10.37,2013-01-31 19:56:00,
2013-01-31 15:01:00,28.9,16.7,29.50,West,279,11.5,11.5,60,0.00,,,0.32,WeatherDisplay:10.37,2013-01-31 20:01:00,
2013-01-31 15:06:00,29.1,17.3,29.49,West,266,16.1,16.1,61,0.00,,,0.32,WeatherDisplay:10.37,2013-01-31 20:06:00,
2013-01-31 15:11:00,29.3,16.3,29.50,West,262,7.0,7.0,58,0.00,,,0.32,WeatherDisplay:10.37,2013-01-31 20:11:00,
2013-01-31 15:16:00,29.1,14.5,29.50,South,177,25.3,25.3,54,0.00,,,0.32,WeatherDisplay:10.37,2013-01-31 20:16:00,
2013-01-31 15:21:00,29.1,14.9,29.51,WSW,255,15.0,15.0,55,0.00,,,0.32,WeatherDisplay:10.37,2013-01-31 20:21:00,
2013-01-31 15:26:00,29.3,15.9,29.51,WNW,293,6.0,6.0,57,0.00,,,0.32,WeatherDisplay:10.37,2013-01-31 20:26:00,
2013-01-31 15:31:00,29.5,14.9,29.51,WSW,250,8.1,8.1,54,0.00,,,0.32,WeatherDisplay:10.37,2013-01-31 20:31:00,
2013-01-31 15:36:00,29.6,14.1,29.51,WSW,257,12.7,12.7,52,0.00,,,0.32,WeatherDisplay:10.37,2013-01-31 20:36:00,
2013-01-31 15:41:00,29.3,12.5,29.52,West,276,15.0,15.0,49,0.00,,,0.32,WeatherDisplay:10.37,2013-01-31 20:41:00,
2013-01-31 15:46:00,29.5,13.1,29.52,WNW,297,15.0,15.0,50,0.00,,,0.32,WeatherDisplay:10.37,2013-01-31 20:46:00,
2013-01-31 15:51:00,29.5,12.7,29.52,NW,304,12.7,12.7,49,0.00,,,0.32,WeatherDisplay:10.37,2013-01-31 20:51:00,
2013-01-31 15:56:00,29.3,12.5,29.53,NNW,337,12.7,12.7,49,0.00,,,0.32,WeatherDisplay:10.37,2013-01-31 20:56:00,
2013-01-31 16:01:00,29.2,13.3,29.53,ESE,117,5.0,5.0,51,0.00,,,0.32,WeatherDisplay:10.37,2013-01-31 21:01:00,
2013-01-31 16:07:00,29.1,12.8,29.53,WSW,252,10.4,10.4,50,0.00,,,0.32,WeatherDisplay:10.37,2013-01-31 21:07:00,
2013-01-31 16:12:00,28.8,13.4,29.54,WSW,253,16.1,16.1,52,0.00,,,0.32,WeatherDisplay:10.37,2013-01-31 21:12:00,
2013-01-31 16:17:00,28.5,12.6,29.53,WNW,293,11.5,11.5,51,0.00,,,0.32,WeatherDisplay:10.37,2013-01-31 21:17:00,
2013-01-31 16:22:00,28.5,13.1,29.53,NW,311,4.6,4.6,52,0.00,,,0.32,WeatherDisplay:10.37,2013-01-31 21:22:00,
2013-01-31 16:27:00,28.4,12.1,29.54,WNW,288,9.2,9.2,50,0.00,,,0.32,WeatherDisplay:10.37,2013-01-31 21:27:00,
2013-01-31 16:32:00,28.5,12.2,29.55,WNW,297,17.3,17.3,50,0.00,,,0.32,WeatherDisplay:10.37,2013-01-31 21:32:00,
2013-01-31 16:37:00,28.5,13.1,29.54,West,269,7.0,7.0,52,0.00,,,0.32,WeatherDisplay:10.37,2013-01-31 21:37:00,
2013-01-31 16:42:00,28.6,12.7,29.55,West,273,12.7,12.7,51,0.00,,,0.32,WeatherDisplay:10.37,2013-01-31 21:42:00,
2013-01-31 16:47:00,28.5,12.6,29.55,NE,36,3.5,3.5,51,0.00,,,0.32,WeatherDisplay:10.37,2013-01-31 21:47:00,
2013-01-31 16:52:00,28.5,12.2,29.55,WNW,289,11.5,11.5,50,0.00,,,0.32,WeatherDisplay:10.37,2013-01-31 21:52:00,
2013-01-31 16:57:00,28.4,12.1,29.56,NNW,345,6.9,6.9,50,0.00,,,0.32,WeatherDisplay:10.37,2013-01-31 21:57:00,
2013-01-31 17:02:00,28.4,12.1,29.56,SW,228,3.5,3.5,50,0.00,,,0.32,WeatherDisplay:10.37,2013-01-31 22:02:00,
2013-01-31 17:07:00,28.4,12.6,29.56,SE,132,16.1,16.1,51,0.00,,,0.32,WeatherDisplay:10.37,2013-01-31 22:07:00,
2013-01-31 17:12:00,28.3,12.5,29.56,WNW,288,9.2,9.2,51,0.00,,,0.32,WeatherDisplay:10.37,2013-01-31 22:12:00,
2013-01-31 17:17:00,28.2,12.8,29.56,SW,219,11.5,11.5,52,0.00,,,0.32,WeatherDisplay:10.37,2013-01-31 22:17:00,
2013-01-31 17:22:00,28.1,13.1,29.57,WNW,291,5.0,5.0,53,0.00,,,0.32,WeatherDisplay:10.37,2013-01-31 22:22:00,
2013-01-31 17:27:00,28.1,12.7,29.57,West,277,3.5,3.5,52,0.00,,,0.32,WeatherDisplay:10.37,2013-01-31 22:27:00,
2013-01-31 17:32:00,28.1,14.0,29.58,West,271,9.2,9.2,55,0.00,,,0.32,WeatherDisplay:10.37,2013-01-31 22:32:00,
2013-01-31 17:37:00,28.1,13.6,29.58,West,269,4.6,4.6,54,0.00,,,0.32,WeatherDisplay:10.37,2013-01-31 22:37:00,
2013-01-31 17:42:00,28.0,13.1,29.58,NE,50,16.1,16.1,53,0.00,,,0.32,WeatherDisplay:10.37,2013-01-31 22:42:00,
2013-01-31 17:48:00,28.0,11.7,29.59,SW,229,18.4,18.4,50,0.00,,,0.32,WeatherDisplay:10.37,2013-01-31 22:48:00,
2013-01-31 17:53:00,28.0,12.6,29.59,WNW,289,9.0,9.0,52,0.00,,,0.32,WeatherDisplay:10.37,2013-01-31 22:53:00,
2013-01-31 17:58:00,27.9,12.1,29.59,West,273,8.1,8.1,51,0.00,,,0.32,WeatherDisplay:10.37,2013-01-31 22:58:00,
2013-01-31 18:03:00,27.8,12.4,29.59,SSE,153,8.1,8.1,52,0.00,,,0.32,WeatherDisplay:10.37,2013-01-31 23:03:00,
2013-01-31 18:08:00,27.7,12.8,29.60,West,281,12.7,12.7,53,0.00,,,0.32,WeatherDisplay:10.37,2013-01-31 23:08:00,
2013-01-31 18:13:00,27.7,13.2,29.60,WSW,242,6.9,6.9,54,0.00,,,0.32,WeatherDisplay:10.37,2013-01-31 23:13:00,
2013-01-31 18:18:00,27.7,13.2,29.61,SW,226,9.2,9.2,54,0.00,,,0.32,WeatherDisplay:10.37,2013-01-31 23:18:00,
2013-01-31 18:23:00,27.7,13.6,29.61,West,277,3.5,3.5,55,0.00,,,0.32,WeatherDisplay:10.37,2013-01-31 23:23:00,
2013-01-31 18:28:00,27.6,13.5,29.61,WNW,300,19.6,19.6,55,0.00,,,0.32,WeatherDisplay:10.37,2013-01-31 23:28:00,
2013-01-31 18:33:00,27.5,13.0,29.61,West,278,11.5,11.5,54,0.00,,,0.32,WeatherDisplay:10.37,2013-01-31 23:33:00,
2013-01-31 18:38:00,27.4,12.1,29.61,West,268,17.3,17.3,52,0.00,,,0.32,WeatherDisplay:10.37,2013-01-31 23:38:00,
2013-01-31 18:43:00,27.3,12.4,29.61,WSW,246,11.5,11.5,53,0.00,,,0.32,WeatherDisplay:10.37,2013-01-31 23:43:00,
2013-01-31 18:48:00,27.3,12.4,29.62,ENE,70,11.5,11.5,53,0.00,,,0.32,WeatherDisplay:10.37,2013-01-31 23:48:00,
2013-01-31 18:53:00,27.2,12.3,29.62,West,281,12.7,12.7,53,0.00,,,0.32,WeatherDisplay:10.37,2013-01-31 23:53:00,
2013-01-31 18:58:00,27.1,12.6,29.62,West,260,6.9,6.9,54,0.00,,,0.32,WeatherDisplay:10.37,2013-01-31 23:58:00,
2013-01-31 19:03:00,27.1,13.5,29.63,West,273,8.1,8.1,56,0.00,,,0.32,WeatherDisplay:10.37,2013-02-01 00:03:00,
2013-01-31 19:09:00,27.0,14.2,29.63,WNW,285,2.3,2.3,58,0.00,,,0.32,WeatherDisplay:10.37,2013-02-01 00:09:00,
2013-01-31 19:14:00,26.9,14.1,29.63,West,263,11.5,11.5,58,0.00,,,0.32,WeatherDisplay:10.37,2013-02-01 00:14:00,
2013-01-31 19:19:00,26.8,14.8,29.63,West,278,13.8,13.8,60,0.00,,,0.32,WeatherDisplay:10.37,2013-02-01 00:19:00,
2013-01-31 19:24:00,26.7,13.9,29.63,NW,326,10.4,10.4,58,0.00,,,0.32,WeatherDisplay:10.37,2013-02-01 00:24:00,
2013-01-31 19:29:00,26.7,13.9,29.63,WNW,288,4.6,4.6,58,0.00,,,0.32,WeatherDisplay:10.37,2013-02-01 00:29:00,
2013-01-31 19:34:00,26.7,13.9,29.63,WSW,246,6.9,6.9,58,0.00,,,0.32,WeatherDisplay:10.37,2013-02-01 00:34:00,
2013-01-31 19:39:00,26.7,13.9,29.64,SSW,194,4.6,4.6,58,0.00,,,0.32,WeatherDisplay:10.37,2013-02-01 00:39:00,
2013-01-31 19:44:00,26.7,14.3,29.64,NNE,25,5.8,5.8,59,0.00,,,0.32,WeatherDisplay:10.37,2013-02-01 00:44:00,
2013-01-31 19:49:00,26.6,13.4,29.64,WNW,292,4.0,4.0,57,0.00,,,0.32,WeatherDisplay:10.37,2013-02-01 00:49:00,
2013-01-31 19:55:00,26.5,14.5,29.64,West,266,12.0,12.0,60,0.00,,,0.32,WeatherDisplay:10.37,2013-02-01 00:55:00,
2013-01-31 20:00:00,26.3,15.0,29.64,SE,126,3.5,3.5,62,0.00,,,0.32,WeatherDisplay:10.37,2013-02-01 01:00:00,
2013-01-31 20:05:00,26.2,14.6,29.64,ENE,66,3.0,3.0,61,0.00,,,0.32,WeatherDisplay:10.37,2013-02-01 01:05:00,
2013-01-31 20:10:00,26.2,13.4,29.64,West,260,10.4,10.4,58,0.00,,,0.32,WeatherDisplay:10.37,2013-02-01 01:10:00,
2013-01-31 20:15:00,26.3,14.3,29.64,SSW,198,3.5,3.5,60,0.00,,,0.32,WeatherDisplay:10.37,2013-02-01 01:15:00,
2013-01-31 20:20:00,26.3,13.5,29.64,West,265,4.6,4.6,58,0.00,,,0.32,WeatherDisplay:10.37,2013-02-01 01:20:00,
2013-01-31 20:25:00,26.2,13.4,29.65,NNW,340,5.0,5.0,58,0.00,,,0.32,WeatherDisplay:10.37,2013-02-01 01:25:00,
2013-01-31 20:30:00,26.2,13.4,29.65,West,260,13.8,13.8,58,0.00,,,0.32,WeatherDisplay:10.37,2013-02-01 01:30:00,
2013-01-31 20:35:00,25.9,15.4,29.66,West,259,10.4,10.4,64,0.00,,,0.32,WeatherDisplay:10.37,2013-02-01 01:35:00,
2013-01-31 20:40:00,25.0,17.9,29.66,East,82,11.5,11.5,74,0.00,,,0.32,WeatherDisplay:10.37,2013-02-01 01:40:00,
2013-01-31 20:45:00,24.8,17.4,29.66,NW,314,3.5,3.5,73,0.00,,,0.32,WeatherDisplay:10.37,2013-02-01 01:45:00,
2013-01-31 20:50:00,24.8,16.7,29.66,NW,312,6.9,6.9,71,0.00,,,0.32,WeatherDisplay:10.37,2013-02-01 01:50:00,
2013-01-31 20:55:00,24.8,17.1,29.66,NE,35,7.0,7.0,72,0.00,,,0.32,WeatherDisplay:10.37,2013-02-01 01:55:00,
2013-01-31 21:00:00,24.7,16.6,29.66,West,278,11.5,11.5,71,0.00,,,0.32,WeatherDisplay:10.37,2013-02-01 02:00:00,
2013-01-31 21:06:00,24.7,17.0,29.66,WSW,250,4.6,4.6,72,0.00,,,0.32,WeatherDisplay:10.37,2013-02-01 02:06:00,
2013-01-31 21:11:00,24.7,17.6,29.67,West,259,2.3,2.3,74,0.00,,,0.32,WeatherDisplay:10.37,2013-02-01 02:11:00,
2013-01-31 21:16:00,24.4,17.9,29.67,WSW,240,11.5,11.5,76,0.00,,,0.32,WeatherDisplay:10.37,2013-02-01 02:16:00,
2013-01-31 21:21:00,24.2,18.0,29.67,WSW,240,8.1,8.1,77,0.00,,,0.32,WeatherDisplay:10.37,2013-02-01 02:21:00,
2013-01-31 21:26:00,24.2,18.6,29.67,WNW,300,8.0,8.0,79,0.00,,,0.32,WeatherDisplay:10.37,2013-02-01 02:26:00,
2013-01-31 21:31:00,23.8,19.7,29.67,WSW,253,3.5,3.5,84,0.00,,,0.32,WeatherDisplay:10.37,2013-02-01 02:31:00,
2013-01-31 21:36:00,23.5,19.1,29.67,West,278,3.0,3.0,83,0.00,,,0.32,WeatherDisplay:10.37,2013-02-01 02:36:00,
2013-01-31 21:41:00,23.4,18.7,29.67,WSW,238,2.3,2.3,82,0.00,,,0.32,WeatherDisplay:10.37,2013-02-01 02:41:00,
2013-01-31 21:46:00,23.5,17.6,29.67,West,277,3.5,3.5,78,0.00,,,0.32,WeatherDisplay:10.37,2013-02-01 02:46:00,
2013-01-31 21:51:00,23.5,17.0,29.68,WNW,294,3.5,3.5,76,0.00,,,0.32,WeatherDisplay:10.37,2013-02-01 02:51:00,
2013-01-31 21:56:00,23.5,16.7,29.68,WNW,295,6.9,6.9,75,0.00,,,0.32,WeatherDisplay:10.37,2013-02-01 02:56:00,
2013-01-31 22:01:00,23.7,16.3,29.68,WNW,288,3.5,3.5,73,0.00,,,0.32,WeatherDisplay:10.37,2013-02-01 03:01:00,
2013-01-31 22:06:00,23.7,16.0,29.68,NNE,25,5.8,5.8,72,0.00,,,0.32,WeatherDisplay:10.37,2013-02-01 03:06:00,
2013-01-31 22:11:00,23.8,15.8,29.68,NNW,346,5.8,5.8,71,0.00,,,0.32,WeatherDisplay:10.37,2013-02-01 03:11:00,
2013-01-31 22:16:00,23.8,15.1,29.68,SW,217,5.8,5.8,69,0.00,,,0.32,WeatherDisplay:10.37,2013-02-01 03:16:00,
2013-01-31 22:21:00,23.8,15.1,29.69,WNW,287,11.5,11.5,69,0.00,,,0.32,WeatherDisplay:10.37,2013-02-01 03:21:00,
2013-01-31 22:26:00,23.9,14.9,29.69,West,276,8.1,8.1,68,0.00,,,0.32,WeatherDisplay:10.37,2013-02-01 03:26:00,
2013-01-31 22:31:00,23.9,14.9,29.69,West,281,8.1,8.1,68,0.00,,,0.32,WeatherDisplay:10.37,2013-02-01 03:31:00,
2013-01-31 22:36:00,23.8,15.1,29.69,WNW,287,7.0,7.0,69,0.00,,,0.32,WeatherDisplay:10.37,2013-02-01 03:36:00,
2013-01-31 22:41:00,23.7,15.3,29.69,West,269,4.6,4.6,70,0.00,,,0.32,WeatherDisplay:10.37,2013-02-01 03:41:00,
2013-01-31 22:46:00,23.6,15.2,29.69,NW,312,2.3,2.3,70,0.00,,,0.32,WeatherDisplay:10.37,2013-02-01 03:46:00,
2013-01-31 22:51:00,23.6,14.9,29.69,West,281,9.2,9.2,69,0.00,,,0.32,WeatherDisplay:10.37,2013-02-01 03:51:00,
2013-01-31 22:56:00,23.5,14.8,29.69,WNW,282,3.5,3.5,69,0.00,,,0.32,WeatherDisplay:10.37,2013-02-01 03:56:00,
2013-01-31 23:01:00,23.4,15.1,29.69,WSW,253,1.1,0.0,70,0.00,,,0.32,WeatherDisplay:10.37,2013-02-01 04:01:00,
2013-01-31 23:06:00,23.3,15.0,29.69,SW,215,12.7,12.7,70,0.00,,,0.32,WeatherDisplay:10.37,2013-02-01 04:06:00,
2013-01-31 23:11:00,23.3,14.0,29.69,North,356,8.1,8.1,67,0.00,,,0.32,WeatherDisplay:10.37,2013-02-01 04:11:00,
2013-01-31 23:16:00,23.3,14.0,29.69,NNW,336,11.5,11.5,67,0.00,,,0.32,WeatherDisplay:10.37,2013-02-01 04:16:00,
2013-01-31 23:21:00,23.3,14.0,29.69,NW,312,3.5,3.5,67,0.00,,,0.32,WeatherDisplay:10.37,2013-02-01 04:21:00,
2013-01-31 23:26:00,23.2,14.2,29.69,West,281,3.5,3.5,68,0.00,,,0.32,WeatherDisplay:10.37,2013-02-01 04:26:00,
2013-01-31 23:31:00,23.2,14.2,29.69,West,267,10.4,10.4,68,0.00,,,0.32,WeatherDisplay:10.37,2013-02-01 04:31:00,
2013-01-31 23:36:00,23.2,14.5,29.69,WSW,245,3.5,3.5,69,0.00,,,0.32,WeatherDisplay:10.37,2013-02-01 04:36:00,
2013-01-31 23:41:00,23.1,14.8,29.69,West,270,2.3,2.3,70,0.00,,,0.32,WeatherDisplay:10.37,2013-02-01 04:41:00,
2013-01-31 23:46:00,23.0,14.3,29.69,WNW,290,5.8,5.8,69,0.00,,,0.32,WeatherDisplay:10.37,2013-02-01 04:46:00,
2013-01-31 23:51:00,23.1,14.1,29.69,WNW,287,4.6,4.6,68,0.00,,,0.32,WeatherDisplay:10.37,2013-02-01 04:51:00,
2013-01-31 23:56:00,23.2,13.9,29.69,WSW,257,10.4,10.4,67,0.00,,,0.32,WeatherDisplay:10.37,2013-02-01 04:56:00,